sensor_id;sensor_type;location;lat;lon;timestamp;temperature;humidity
1277;DHT22;631;51.024;13.826;2024-03-23T00:56:08;10.10;1.00
1277;DHT22;631;51.024;13.826;2024-03-23T00:58:34;10.10;1.00
1277;DHT22;631;51.024;13.826;2024-03-23T01:01:00;10.10;1.00
1277;DHT22;631;51.024;13.826;2024-03-23T01:03:26;10.00;1.00
1277;DHT22;631;51.024;13.826;2024-03-23T01:05:51;10.00;1.00
1277;DHT22;631;51.024;13.826;2024-03-23T01:08:19;9.90;1.00
1277;DHT22;631;51.024;13.826;2024-03-23T01:10:57;9.90;1.00
1277;DHT22;631;51.024;13.826;2024-03-23T01:13:23;9.90;1.00
1277;DHT22;631;51.024;13.826;2024-03-23T01:15:54;9.90;1.00
1277;DHT22;631;51.024;13.826;2024-03-23T01:18:20;10.00;1.00
1277;DHT22;631;51.024;13.826;2024-03-23T01:20:46;10.00;1.00
1277;DHT22;631;51.024;13.826;2024-03-23T01:23:12;10.00;1.00
1277;DHT22;631;51.024;13.826;2024-03-23T01:25:38;10.10;1.00
1277;DHT22;631;51.024;13.826;2024-03-23T01:28:04;10.00;1.00
1277;DHT22;631;51.024;13.826;2024-03-23T01:30:30;10.00;1.00
1277;DHT22;631;51.024;13.826;2024-03-23T01:32:56;10.00;1.00
1277;DHT22;631;51.024;13.826;2024-03-23T01:35:21;9.90;1.00
1277;DHT22;631;51.024;13.826;2024-03-23T01:37:47;9.90;1.00
1277;DHT22;631;51.024;13.826;2024-03-23T01:40:13;9.80;1.00
1277;DHT22;631;51.024;13.826;2024-03-23T01:42:41;9.80;1.00
1277;DHT22;631;51.024;13.826;2024-03-23T01:45:07;9.70;1.00
1277;DHT22;631;51.024;13.826;2024-03-23T01:47:34;9.60;1.00
1277;DHT22;631;51.024;13.826;2024-03-23T01:49:59;9.60;1.80
1277;DHT22;631;51.024;13.826;2024-03-23T01:52:26;9.50;4.10
1277;DHT22;631;51.024;13.826;2024-03-23T01:54:53;9.50;12.50
1277;DHT22;631;51.024;13.826;2024-03-23T01:57:19;9.40;17.00
1277;DHT22;631;51.024;13.826;2024-03-23T01:59:48;9.30;19.20
1277;DHT22;631;51.024;13.826;2024-03-23T02:02:15;9.20;19.00
1277;DHT22;631;51.024;13.826;2024-03-23T02:04:43;9.20;23.20
1277;DHT22;631;51.024;13.826;2024-03-23T02:07:08;9.10;29.90
1277;DHT22;631;51.024;13.826;2024-03-23T02:09:34;9.00;32.90
1277;DHT22;631;51.024;13.826;2024-03-23T02:12:02;8.90;44.40
1277;DHT22;631;51.024;13.826;2024-03-23T02:14:28;8.80;51.30
1277;DHT22;631;51.024;13.826;2024-03-23T02:16:53;8.70;62.10
1277;DHT22;631;51.024;13.826;2024-03-23T02:19:19;8.70;89.10
1277;DHT22;631;51.024;13.826;2024-03-23T02:21:44;8.60;98.70
1277;DHT22;631;51.024;13.826;2024-03-23T02:24:12;8.60;99.90
1277;DHT22;631;51.024;13.826;2024-03-23T02:26:37;8.60;99.90
1277;DHT22;631;51.024;13.826;2024-03-23T02:29:03;8.50;99.90
1277;DHT22;631;51.024;13.826;2024-03-23T02:31:29;8.50;99.90
1277;DHT22;631;51.024;13.826;2024-03-23T02:33:54;8.50;99.90
1277;DHT22;631;51.024;13.826;2024-03-23T02:36:20;8.60;99.90
1277;DHT22;631;51.024;13.826;2024-03-23T02:38:46;8.60;99.90
1277;DHT22;631;51.024;13.826;2024-03-23T02:41:12;8.60;99.90
1277;DHT22;631;51.024;13.826;2024-03-23T02:43:38;8.70;99.90
1277;DHT22;631;51.024;13.826;2024-03-23T02:46:03;8.60;99.90
1277;DHT22;631;51.024;13.826;2024-03-23T02:48:29;8.60;99.90
1277;DHT22;631;51.024;13.826;2024-03-23T02:50:55;8.60;99.90
1277;DHT22;631;51.024;13.826;2024-03-23T02:53:21;8.60;99.90
1277;DHT22;631;51.024;13.826;2024-03-23T02:55:46;8.60;99.90
1277;DHT22;631;51.024;13.826;2024-03-23T02:58:12;8.50;99.90
1277;DHT22;631;51.024;13.826;2024-03-23T03:00:38;8.50;99.90
1277;DHT22;631;51.024;13.826;2024-03-23T03:03:03;8.50;99.90
1277;DHT22;631;51.024;13.826;2024-03-23T03:05:29;8.40;99.90
1277;DHT22;631;51.024;13.826;2024-03-23T03:07:55;8.40;99.90
1277;DHT22;631;51.024;13.826;2024-03-23T03:10:20;8.40;99.90
1277;DHT22;631;51.024;13.826;2024-03-23T03:12:46;8.40;99.90
1277;DHT22;631;51.024;13.826;2024-03-23T03:15:11;8.50;99.90
1277;DHT22;631;51.024;13.826;2024-03-23T03:17:37;8.50;99.90
1277;DHT22;631;51.024;13.826;2024-03-23T03:20:03;8.50;99.90
1277;DHT22;631;51.024;13.826;2024-03-23T03:22:30;8.50;99.90
1277;DHT22;631;51.024;13.826;2024-03-23T03:24:55;8.50;99.90
1277;DHT22;631;51.024;13.826;2024-03-23T03:27:21;8.50;99.90
1277;DHT22;631;51.024;13.826;2024-03-23T03:29:48;8.50;99.90
1277;DHT22;631;51.024;13.826;2024-03-23T03:32:14;8.40;99.90
1277;DHT22;631;51.024;13.826;2024-03-23T03:34:39;8.30;99.90
1277;DHT22;631;51.024;13.826;2024-03-23T03:37:05;8.30;99.90
1277;DHT22;631;51.024;13.826;2024-03-23T03:39:30;8.20;99.90
1277;DHT22;631;51.024;13.826;2024-03-23T03:41:56;8.20;99.90
1277;DHT22;631;51.024;13.826;2024-03-23T03:44:22;8.10;99.90
1277;DHT22;631;51.024;13.826;2024-03-23T03:46:47;8.10;99.90
1277;DHT22;631;51.024;13.826;2024-03-23T03:49:13;8.10;99.90
1277;DHT22;631;51.024;13.826;2024-03-23T03:51:38;8.10;99.90
1277;DHT22;631;51.024;13.826;2024-03-23T03:54:04;8.10;99.90
1277;DHT22;631;51.024;13.826;2024-03-23T03:56:29;8.10;99.90
1277;DHT22;631;51.024;13.826;2024-03-23T03:58:55;8.10;99.90
1277;DHT22;631;51.024;13.826;2024-03-23T04:01:21;8.10;99.90
1277;DHT22;631;51.024;13.826;2024-03-23T04:03:46;8.10;99.90
1277;DHT22;631;51.024;13.826;2024-03-23T04:06:13;8.10;99.90
1277;DHT22;631;51.024;13.826;2024-03-23T04:08:43;8.10;99.90
1277;DHT22;631;51.024;13.826;2024-03-23T04:11:09;8.00;99.90
1277;DHT22;631;51.024;13.826;2024-03-23T04:13:34;7.90;99.90
1277;DHT22;631;51.024;13.826;2024-03-23T04:16:00;7.90;99.90
1277;DHT22;631;51.024;13.826;2024-03-23T04:18:25;7.80;99.90
1277;DHT22;631;51.024;13.826;2024-03-23T04:20:51;7.80;99.90
1277;DHT22;631;51.024;13.826;2024-03-23T04:23:17;7.70;99.90
1277;DHT22;631;51.024;13.826;2024-03-23T04:25:43;7.70;99.90
1277;DHT22;631;51.024;13.826;2024-03-23T04:28:08;7.70;99.90
1277;DHT22;631;51.024;13.826;2024-03-23T04:30:34;7.70;99.90
1277;DHT22;631;51.024;13.826;2024-03-23T04:33:00;7.60;99.90
1277;DHT22;631;51.024;13.826;2024-03-23T04:35:26;7.60;99.90
1277;DHT22;631;51.024;13.826;2024-03-23T04:37:53;7.50;99.90
1277;DHT22;631;51.024;13.826;2024-03-23T04:40:19;7.50;99.90
1277;DHT22;631;51.024;13.826;2024-03-23T04:42:44;7.40;99.90
1277;DHT22;631;51.024;13.826;2024-03-23T04:45:10;7.40;99.90
1277;DHT22;631;51.024;13.826;2024-03-23T04:47:37;7.40;99.90
1277;DHT22;631;51.024;13.826;2024-03-23T04:50:03;7.30;99.90
1277;DHT22;631;51.024;13.826;2024-03-23T04:52:29;7.30;99.90
1277;DHT22;631;51.024;13.826;2024-03-23T04:54:55;7.20;99.90
1277;DHT22;631;51.024;13.826;2024-03-23T04:57:20;7.20;99.90
1277;DHT22;631;51.024;13.826;2024-03-23T04:59:46;7.20;99.90
1277;DHT22;631;51.024;13.826;2024-03-23T05:02:12;7.10;99.90
1277;DHT22;631;51.024;13.826;2024-03-23T05:04:38;7.10;99.90
1277;DHT22;631;51.024;13.826;2024-03-23T05:07:04;7.10;99.90
1277;DHT22;631;51.024;13.826;2024-03-23T05:09:30;7.10;99.90
1277;DHT22;631;51.024;13.826;2024-03-23T05:12:05;7.10;99.90
1277;DHT22;631;51.024;13.826;2024-03-23T05:14:30;7.10;99.90
1277;DHT22;631;51.024;13.826;2024-03-23T05:16:56;7.10;99.90
1277;DHT22;631;51.024;13.826;2024-03-23T05:19:21;7.00;99.90
1277;DHT22;631;51.024;13.826;2024-03-23T05:21:48;7.10;99.90
1277;DHT22;631;51.024;13.826;2024-03-23T05:24:13;7.10;99.90
1277;DHT22;631;51.024;13.826;2024-03-23T05:26:39;7.10;99.90
1277;DHT22;631;51.024;13.826;2024-03-23T05:29:04;7.10;99.90
1277;DHT22;631;51.024;13.826;2024-03-23T05:31:32;7.10;99.90
1277;DHT22;631;51.024;13.826;2024-03-23T05:33:58;7.10;99.90
1277;DHT22;631;51.024;13.826;2024-03-23T05:36:23;7.10;99.90
1277;DHT22;631;51.024;13.826;2024-03-23T05:38:52;7.10;99.90
1277;DHT22;631;51.024;13.826;2024-03-23T05:41:17;7.30;99.90
1277;DHT22;631;51.024;13.826;2024-03-23T05:43:43;7.40;99.90
1277;DHT22;631;51.024;13.826;2024-03-23T05:46:09;7.50;99.90
1277;DHT22;631;51.024;13.826;2024-03-23T05:48:35;7.50;99.90
1277;DHT22;631;51.024;13.826;2024-03-23T05:51:01;7.60;99.90
1277;DHT22;631;51.024;13.826;2024-03-23T05:53:26;7.70;99.90
1277;DHT22;631;51.024;13.826;2024-03-23T05:56:00;7.70;99.90
1277;DHT22;631;51.024;13.826;2024-03-23T05:58:29;7.80;99.90
1277;DHT22;631;51.024;13.826;2024-03-23T06:00:58;7.90;99.90
1277;DHT22;631;51.024;13.826;2024-03-23T06:03:25;7.90;99.90
1277;DHT22;631;51.024;13.826;2024-03-23T06:05:51;8.00;99.90
1277;DHT22;631;51.024;13.826;2024-03-23T06:08:18;8.10;99.90
1277;DHT22;631;51.024;13.826;2024-03-23T06:10:45;8.10;99.90
1277;DHT22;631;51.024;13.826;2024-03-23T06:13:11;8.10;99.90
1277;DHT22;631;51.024;13.826;2024-03-23T06:15:37;8.20;99.90
1277;DHT22;631;51.024;13.826;2024-03-23T06:18:03;8.30;99.90
1277;DHT22;631;51.024;13.826;2024-03-23T06:20:30;8.20;99.90
1277;DHT22;631;51.024;13.826;2024-03-23T06:22:55;8.20;99.90
1277;DHT22;631;51.024;13.826;2024-03-23T06:25:21;8.10;99.90
1277;DHT22;631;51.024;13.826;2024-03-23T06:27:47;8.00;99.90
1277;DHT22;631;51.024;13.826;2024-03-23T06:30:12;8.00;99.90
1277;DHT22;631;51.024;13.826;2024-03-23T06:32:38;8.00;99.90
1277;DHT22;631;51.024;13.826;2024-03-23T06:35:04;8.00;99.90
1277;DHT22;631;51.024;13.826;2024-03-23T06:37:34;8.10;99.90
1277;DHT22;631;51.024;13.826;2024-03-23T06:39:59;8.10;99.90
1277;DHT22;631;51.024;13.826;2024-03-23T06:42:25;8.10;99.90
1277;DHT22;631;51.024;13.826;2024-03-23T06:44:51;8.10;99.90
1277;DHT22;631;51.024;13.826;2024-03-23T06:47:16;8.20;99.90
1277;DHT22;631;51.024;13.826;2024-03-23T06:49:42;8.20;99.90
1277;DHT22;631;51.024;13.826;2024-03-23T06:52:08;8.30;99.90
1277;DHT22;631;51.024;13.826;2024-03-23T06:54:33;8.20;99.90
1277;DHT22;631;51.024;13.826;2024-03-23T06:56:59;8.20;99.90
1277;DHT22;631;51.024;13.826;2024-03-23T06:59:25;8.30;99.90
1277;DHT22;631;51.024;13.826;2024-03-23T07:01:50;8.30;99.90
1277;DHT22;631;51.024;13.826;2024-03-23T07:04:16;8.40;99.90
1277;DHT22;631;51.024;13.826;2024-03-23T07:06:45;8.40;99.90
1277;DHT22;631;51.024;13.826;2024-03-23T07:09:11;8.30;99.90
1277;DHT22;631;51.024;13.826;2024-03-23T07:11:37;8.20;99.90
1277;DHT22;631;51.024;13.826;2024-03-23T07:14:03;8.30;99.90
1277;DHT22;631;51.024;13.826;2024-03-23T07:16:29;8.20;99.90
1277;DHT22;631;51.024;13.826;2024-03-23T07:18:55;8.20;99.90
1277;DHT22;631;51.024;13.826;2024-03-23T07:21:21;8.30;99.90
1277;DHT22;631;51.024;13.826;2024-03-23T07:23:46;8.30;99.90
1277;DHT22;631;51.024;13.826;2024-03-23T07:26:12;8.30;99.90
1277;DHT22;631;51.024;13.826;2024-03-23T07:28:38;8.40;99.90
1277;DHT22;631;51.024;13.826;2024-03-23T07:31:09;8.50;99.90
1277;DHT22;631;51.024;13.826;2024-03-23T07:33:37;8.50;99.90
1277;DHT22;631;51.024;13.826;2024-03-23T07:36:03;8.60;99.90
1277;DHT22;631;51.024;13.826;2024-03-23T07:38:29;8.60;99.90
1277;DHT22;631;51.024;13.826;2024-03-23T07:41:10;8.70;99.90
1277;DHT22;631;51.024;13.826;2024-03-23T07:43:39;8.70;99.90
1277;DHT22;631;51.024;13.826;2024-03-23T07:46:08;8.80;99.90
1277;DHT22;631;51.024;13.826;2024-03-23T07:48:34;8.90;99.90
1277;DHT22;631;51.024;13.826;2024-03-23T07:53:29;9.10;99.90
1277;DHT22;631;51.024;13.826;2024-03-23T07:56:03;9.20;99.90
1277;DHT22;631;51.024;13.826;2024-03-23T07:58:29;9.30;99.90
1277;DHT22;631;51.024;13.826;2024-03-23T08:00:55;9.40;99.90
1277;DHT22;631;51.024;13.826;2024-03-23T08:03:22;9.50;99.90
1277;DHT22;631;51.024;13.826;2024-03-23T08:05:48;9.40;99.90
1277;DHT22;631;51.024;13.826;2024-03-23T08:08:14;9.40;99.90
1277;DHT22;631;51.024;13.826;2024-03-23T08:10:50;9.50;99.90
1277;DHT22;631;51.024;13.826;2024-03-23T08:13:16;9.60;99.90
1277;DHT22;631;51.024;13.826;2024-03-23T08:15:42;9.70;99.90
1277;DHT22;631;51.024;13.826;2024-03-23T08:18:07;9.80;99.90
1277;DHT22;631;51.024;13.826;2024-03-23T08:20:33;9.90;99.90
1277;DHT22;631;51.024;13.826;2024-03-23T08:22:59;10.00;99.90
1277;DHT22;631;51.024;13.826;2024-03-23T08:25:24;10.10;99.90
1277;DHT22;631;51.024;13.826;2024-03-23T08:27:50;10.20;99.90
1277;DHT22;631;51.024;13.826;2024-03-23T08:30:16;10.20;99.90
1277;DHT22;631;51.024;13.826;2024-03-23T08:32:42;10.30;99.90
1277;DHT22;631;51.024;13.826;2024-03-23T08:35:08;10.50;99.90
1277;DHT22;631;51.024;13.826;2024-03-23T08:37:34;10.70;99.90
1277;DHT22;631;51.024;13.826;2024-03-23T08:40:00;11.00;99.90
1277;DHT22;631;51.024;13.826;2024-03-23T08:42:26;11.20;99.90
1277;DHT22;631;51.024;13.826;2024-03-23T08:44:51;11.40;99.90
1277;DHT22;631;51.024;13.826;2024-03-23T08:47:17;11.50;99.90
1277;DHT22;631;51.024;13.826;2024-03-23T08:49:44;11.50;99.90
1277;DHT22;631;51.024;13.826;2024-03-23T08:52:10;11.60;99.90
1277;DHT22;631;51.024;13.826;2024-03-23T08:54:35;11.60;99.90
1277;DHT22;631;51.024;13.826;2024-03-23T08:57:01;11.60;99.90
1277;DHT22;631;51.024;13.826;2024-03-23T08:59:27;11.50;99.90
1277;DHT22;631;51.024;13.826;2024-03-23T09:01:53;11.30;99.90
1277;DHT22;631;51.024;13.826;2024-03-23T09:04:19;11.10;99.90
1277;DHT22;631;51.024;13.826;2024-03-23T09:06:44;11.10;99.90
1277;DHT22;631;51.024;13.826;2024-03-23T09:09:10;11.10;99.90
1277;DHT22;631;51.024;13.826;2024-03-23T09:11:36;11.10;99.90
1277;DHT22;631;51.024;13.826;2024-03-23T09:14:03;11.20;99.90
1277;DHT22;631;51.024;13.826;2024-03-23T09:16:28;11.30;99.90
1277;DHT22;631;51.024;13.826;2024-03-23T09:18:54;11.40;99.90
1277;DHT22;631;51.024;13.826;2024-03-23T09:21:20;11.40;99.90
1277;DHT22;631;51.024;13.826;2024-03-23T09:23:45;11.50;99.90
1277;DHT22;631;51.024;13.826;2024-03-23T09:26:11;11.60;99.90
1277;DHT22;631;51.024;13.826;2024-03-23T09:28:37;11.70;99.90
1277;DHT22;631;51.024;13.826;2024-03-23T09:31:03;11.70;99.90
1277;DHT22;631;51.024;13.826;2024-03-23T09:33:30;11.70;99.90
1277;DHT22;631;51.024;13.826;2024-03-23T09:35:55;11.50;99.90
1277;DHT22;631;51.024;13.826;2024-03-23T09:38:22;11.60;99.90
1277;DHT22;631;51.024;13.826;2024-03-23T09:40:50;11.70;99.90
1277;DHT22;631;51.024;13.826;2024-03-23T09:43:18;11.70;99.90
1277;DHT22;631;51.024;13.826;2024-03-23T09:45:45;11.70;64.50
1277;DHT22;631;51.024;13.826;2024-03-23T09:48:11;11.90;68.20
1277;DHT22;631;51.024;13.826;2024-03-23T09:50:42;12.10;14.00
1277;DHT22;631;51.024;13.826;2024-03-23T09:53:08;12.30;18.90
1277;DHT22;631;51.024;13.826;2024-03-23T09:55:34;12.20;70.30
1277;DHT22;631;51.024;13.826;2024-03-23T09:58:04;11.70;98.40
1277;DHT22;631;51.024;13.826;2024-03-23T10:00:34;11.40;99.90
1277;DHT22;631;51.024;13.826;2024-03-23T10:03:00;11.10;99.90
1277;DHT22;631;51.024;13.826;2024-03-23T10:05:30;11.00;99.90
1277;DHT22;631;51.024;13.826;2024-03-23T10:10:42;10.00;99.90
1277;DHT22;631;51.024;13.826;2024-03-23T10:13:08;9.70;99.90
1277;DHT22;631;51.024;13.826;2024-03-23T10:15:35;9.40;99.90
1277;DHT22;631;51.024;13.826;2024-03-23T10:18:20;9.20;99.90
1277;DHT22;631;51.024;13.826;2024-03-23T10:23:36;8.80;99.90
1277;DHT22;631;51.024;13.826;2024-03-23T10:26:24;8.60;99.90
1277;DHT22;631;51.024;13.826;2024-03-23T10:28:57;8.30;99.90
1277;DHT22;631;51.024;13.826;2024-03-23T10:31:26;7.90;99.90
1277;DHT22;631;51.024;13.826;2024-03-23T10:33:51;7.60;99.90
1277;DHT22;631;51.024;13.826;2024-03-23T10:36:20;7.60;99.90
1277;DHT22;631;51.024;13.826;2024-03-23T10:38:46;7.40;99.90
1277;DHT22;631;51.024;13.826;2024-03-23T10:41:13;7.40;99.90
1277;DHT22;631;51.024;13.826;2024-03-23T10:43:39;7.20;99.90
1277;DHT22;631;51.024;13.826;2024-03-23T10:46:05;7.00;99.90
1277;DHT22;631;51.024;13.826;2024-03-23T10:48:33;6.80;99.90
1277;DHT22;631;51.024;13.826;2024-03-23T10:50:59;6.70;99.90
1277;DHT22;631;51.024;13.826;2024-03-23T10:53:26;6.70;99.90
1277;DHT22;631;51.024;13.826;2024-03-23T10:55:52;6.60;99.90
1277;DHT22;631;51.024;13.826;2024-03-23T10:58:43;6.40;99.90
1277;DHT22;631;51.024;13.826;2024-03-23T11:01:13;6.40;99.90
1277;DHT22;631;51.024;13.826;2024-03-23T11:03:40;6.30;99.90
1277;DHT22;631;51.024;13.826;2024-03-23T11:06:10;6.40;99.90
1277;DHT22;631;51.024;13.826;2024-03-23T11:08:39;6.40;99.90
1277;DHT22;631;51.024;13.826;2024-03-23T11:11:13;6.40;99.90
1277;DHT22;631;51.024;13.826;2024-03-23T11:13:38;6.40;99.90
1277;DHT22;631;51.024;13.826;2024-03-23T11:16:27;6.50;99.90
1277;DHT22;631;51.024;13.826;2024-03-23T11:19:34;6.50;99.90
1277;DHT22;631;51.024;13.826;2024-03-23T11:22:01;6.60;99.90
1277;DHT22;631;51.024;13.826;2024-03-23T11:24:26;6.70;99.90
1277;DHT22;631;51.024;13.826;2024-03-23T11:26:52;6.80;99.90
1277;DHT22;631;51.024;13.826;2024-03-23T11:29:18;6.90;99.90
1277;DHT22;631;51.024;13.826;2024-03-23T11:31:47;6.90;99.90
1277;DHT22;631;51.024;13.826;2024-03-23T11:34:13;6.90;99.90
1277;DHT22;631;51.024;13.826;2024-03-23T11:36:40;6.90;99.90
1277;DHT22;631;51.024;13.826;2024-03-23T11:39:32;6.70;99.90
1277;DHT22;631;51.024;13.826;2024-03-23T11:41:57;6.50;99.90
1277;DHT22;631;51.024;13.826;2024-03-23T11:44:25;6.50;99.90
1277;DHT22;631;51.024;13.826;2024-03-23T11:46:52;6.50;99.90
1277;DHT22;631;51.024;13.826;2024-03-23T11:49:26;6.50;99.90
1277;DHT22;631;51.024;13.826;2024-03-23T11:51:54;6.30;99.90
1277;DHT22;631;51.024;13.826;2024-03-23T11:54:24;6.20;99.90
1277;DHT22;631;51.024;13.826;2024-03-23T11:56:59;6.20;99.90
1277;DHT22;631;51.024;13.826;2024-03-23T11:59:39;6.20;99.90
1277;DHT22;631;51.024;13.826;2024-03-23T12:02:10;6.20;99.90
1277;DHT22;631;51.024;13.826;2024-03-23T12:04:36;6.30;99.90
1277;DHT22;631;51.024;13.826;2024-03-23T12:07:19;6.30;99.90
1277;DHT22;631;51.024;13.826;2024-03-23T12:10:02;6.40;99.90
1277;DHT22;631;51.024;13.826;2024-03-23T12:12:28;6.50;99.90
1277;DHT22;631;51.024;13.826;2024-03-23T12:15:07;6.50;99.90
1277;DHT22;631;51.024;13.826;2024-03-23T12:17:34;6.50;99.90
1277;DHT22;631;51.024;13.826;2024-03-23T12:20:00;6.50;99.90
1277;DHT22;631;51.024;13.826;2024-03-23T12:22:26;6.60;99.90
1277;DHT22;631;51.024;13.826;2024-03-23T12:24:52;6.60;99.90
1277;DHT22;631;51.024;13.826;2024-03-23T12:27:18;6.70;99.90
1277;DHT22;631;51.024;13.826;2024-03-23T12:29:44;6.80;99.90
1277;DHT22;631;51.024;13.826;2024-03-23T12:32:12;6.80;99.90
1277;DHT22;631;51.024;13.826;2024-03-23T12:34:38;6.80;99.90
1277;DHT22;631;51.024;13.826;2024-03-23T12:37:04;6.80;99.90
1277;DHT22;631;51.024;13.826;2024-03-23T12:39:31;6.90;99.90
1277;DHT22;631;51.024;13.826;2024-03-23T12:41:57;7.10;99.90
1277;DHT22;631;51.024;13.826;2024-03-23T12:44:22;7.20;99.90
1277;DHT22;631;51.024;13.826;2024-03-23T12:46:48;7.40;98.00
1277;DHT22;631;51.024;13.826;2024-03-23T12:49:13;7.60;62.70
1277;DHT22;631;51.024;13.826;2024-03-23T12:51:40;7.70;38.50
1277;DHT22;631;51.024;13.826;2024-03-23T12:54:11;7.70;32.20
1277;DHT22;631;51.024;13.826;2024-03-23T12:56:37;7.80;30.30
1277;DHT22;631;51.024;13.826;2024-03-23T12:59:02;7.90;13.80
1277;DHT22;631;51.024;13.826;2024-03-23T13:01:28;7.90;1.00
1277;DHT22;631;51.024;13.826;2024-03-23T13:03:54;7.70;1.00
1277;DHT22;631;51.024;13.826;2024-03-23T13:06:19;7.70;1.00
1277;DHT22;631;51.024;13.826;2024-03-23T13:08:45;7.40;1.00
1277;DHT22;631;51.024;13.826;2024-03-23T13:11:11;7.20;1.00
1277;DHT22;631;51.024;13.826;2024-03-23T13:13:37;7.20;14.90
1277;DHT22;631;51.024;13.826;2024-03-23T13:16:04;7.20;7.20
1277;DHT22;631;51.024;13.826;2024-03-23T13:18:31;7.20;1.00
1277;DHT22;631;51.024;13.826;2024-03-23T13:20:58;7.20;1.00
1277;DHT22;631;51.024;13.826;2024-03-23T13:23:23;7.20;1.00
1277;DHT22;631;51.024;13.826;2024-03-23T13:25:55;7.10;1.00
1277;DHT22;631;51.024;13.826;2024-03-23T13:28:24;7.20;1.00
1277;DHT22;631;51.024;13.826;2024-03-23T13:30:53;7.10;1.00
1277;DHT22;631;51.024;13.826;2024-03-23T13:33:19;7.10;1.00
1277;DHT22;631;51.024;13.826;2024-03-23T13:35:51;7.10;1.00
1277;DHT22;631;51.024;13.826;2024-03-23T13:38:17;7.20;1.00
1277;DHT22;631;51.024;13.826;2024-03-23T13:43:15;7.60;1.00
1277;DHT22;631;51.024;13.826;2024-03-23T13:45:40;7.70;1.00
1277;DHT22;631;51.024;13.826;2024-03-23T13:48:06;7.90;1.00
1277;DHT22;631;51.024;13.826;2024-03-23T13:50:32;8.10;1.00
1277;DHT22;631;51.024;13.826;2024-03-23T13:52:57;8.20;1.00
1277;DHT22;631;51.024;13.826;2024-03-23T13:55:23;8.30;1.00
1277;DHT22;631;51.024;13.826;2024-03-23T13:57:49;8.80;1.00
1277;DHT22;631;51.024;13.826;2024-03-23T14:00:16;9.60;1.00
1277;DHT22;631;51.024;13.826;2024-03-23T14:02:43;10.40;99.90
1277;DHT22;631;51.024;13.826;2024-03-23T14:05:09;11.20;99.90
1277;DHT22;631;51.024;13.826;2024-03-23T14:07:36;11.90;96.50
1277;DHT22;631;51.024;13.826;2024-03-23T14:10:05;12.50;95.80
1277;DHT22;631;51.024;13.826;2024-03-23T14:12:36;12.60;92.60
1277;DHT22;631;51.024;13.826;2024-03-23T14:15:06;12.60;91.00
1277;DHT22;631;51.024;13.826;2024-03-23T14:17:32;12.20;91.40
1277;DHT22;631;51.024;13.826;2024-03-23T14:19:58;11.80;90.80
1277;DHT22;631;51.024;13.826;2024-03-23T14:22:27;11.20;91.50
1277;DHT22;631;51.024;13.826;2024-03-23T14:24:52;10.90;92.10
1277;DHT22;631;51.024;13.826;2024-03-23T14:27:18;10.70;92.90
1277;DHT22;631;51.024;13.826;2024-03-23T14:29:46;10.30;91.80
1277;DHT22;631;51.024;13.826;2024-03-23T14:32:12;10.00;94.10
1277;DHT22;631;51.024;13.826;2024-03-23T14:34:38;9.80;94.70
1277;DHT22;631;51.024;13.826;2024-03-23T14:37:03;9.80;94.70
1277;DHT22;631;51.024;13.826;2024-03-23T14:39:30;9.80;94.30
1277;DHT22;631;51.024;13.826;2024-03-23T14:41:56;9.60;95.60
1277;DHT22;631;51.024;13.826;2024-03-23T14:44:22;9.50;95.80
1277;DHT22;631;51.024;13.826;2024-03-23T14:46:49;9.40;96.30
1277;DHT22;631;51.024;13.826;2024-03-23T14:49:15;9.40;96.80
1277;DHT22;631;51.024;13.826;2024-03-23T14:51:43;9.40;97.20
1277;DHT22;631;51.024;13.826;2024-03-23T14:54:09;9.40;94.90
1277;DHT22;631;51.024;13.826;2024-03-23T14:56:35;9.40;94.80
1277;DHT22;631;51.024;13.826;2024-03-23T14:59:01;9.40;95.10
1277;DHT22;631;51.024;13.826;2024-03-23T15:01:26;9.50;94.80
1277;DHT22;631;51.024;13.826;2024-03-23T15:03:52;9.40;94.20
1277;DHT22;631;51.024;13.826;2024-03-23T15:06:19;9.40;94.60
1277;DHT22;631;51.024;13.826;2024-03-23T15:08:45;9.40;93.90
1277;DHT22;631;51.024;13.826;2024-03-23T15:11:10;9.30;95.70
1277;DHT22;631;51.024;13.826;2024-03-23T15:13:37;9.30;96.00
1277;DHT22;631;51.024;13.826;2024-03-23T15:16:03;9.30;95.50
1277;DHT22;631;51.024;13.826;2024-03-23T15:18:30;9.40;95.40
1277;DHT22;631;51.024;13.826;2024-03-23T15:20:56;9.40;94.60
1277;DHT22;631;51.024;13.826;2024-03-23T15:23:22;9.40;94.30
1277;DHT22;631;51.024;13.826;2024-03-23T15:25:58;9.50;94.60
1277;DHT22;631;51.024;13.826;2024-03-23T15:28:24;9.50;94.10
1277;DHT22;631;51.024;13.826;2024-03-23T15:30:52;9.50;94.10
1277;DHT22;631;51.024;13.826;2024-03-23T15:33:18;9.60;93.30
1277;DHT22;631;51.024;13.826;2024-03-23T15:35:44;9.60;93.40
1277;DHT22;631;51.024;13.826;2024-03-23T15:38:10;9.50;92.80
1277;DHT22;631;51.024;13.826;2024-03-23T15:40:36;9.50;93.40
1277;DHT22;631;51.024;13.826;2024-03-23T15:43:01;9.60;94.00
1277;DHT22;631;51.024;13.826;2024-03-23T15:45:27;9.60;92.60
1277;DHT22;631;51.024;13.826;2024-03-23T15:47:52;9.40;93.00
1277;DHT22;631;51.024;13.826;2024-03-23T15:50:18;9.50;93.50
1277;DHT22;631;51.024;13.826;2024-03-23T15:52:44;9.50;93.00
1277;DHT22;631;51.024;13.826;2024-03-23T15:55:09;9.50;95.00
1277;DHT22;631;51.024;13.826;2024-03-23T15:57:36;9.50;94.50
1277;DHT22;631;51.024;13.826;2024-03-23T16:00:02;9.50;94.70
1277;DHT22;631;51.024;13.826;2024-03-23T16:02:28;9.60;95.70
1277;DHT22;631;51.024;13.826;2024-03-23T16:04:54;9.40;93.80
1277;DHT22;631;51.024;13.826;2024-03-23T16:07:20;9.00;94.50
1277;DHT22;631;51.024;13.826;2024-03-23T16:09:46;8.90;95.00
1277;DHT22;631;51.024;13.826;2024-03-23T16:12:12;8.90;96.00
1277;DHT22;631;51.024;13.826;2024-03-23T16:14:37;9.00;97.50
1277;DHT22;631;51.024;13.826;2024-03-23T16:17:03;8.90;96.30
1277;DHT22;631;51.024;13.826;2024-03-23T16:19:28;8.70;97.20
1277;DHT22;631;51.024;13.826;2024-03-23T16:21:54;8.60;97.20
1277;DHT22;631;51.024;13.826;2024-03-23T16:24:21;8.60;98.70
1277;DHT22;631;51.024;13.826;2024-03-23T16:26:46;8.70;98.50
1277;DHT22;631;51.024;13.826;2024-03-23T16:29:12;8.70;99.00
1277;DHT22;631;51.024;13.826;2024-03-23T16:31:38;8.80;99.90
1277;DHT22;631;51.024;13.826;2024-03-23T16:34:03;8.70;99.90
1277;DHT22;631;51.024;13.826;2024-03-23T16:36:29;8.40;99.90
1277;DHT22;631;51.024;13.826;2024-03-23T16:38:55;8.10;1.00
1277;DHT22;631;51.024;13.826;2024-03-23T16:41:21;7.90;99.90
1277;DHT22;631;51.024;13.826;2024-03-23T16:43:46;7.80;99.90
1277;DHT22;631;51.024;13.826;2024-03-23T16:46:13;7.80;99.90
1277;DHT22;631;51.024;13.826;2024-03-23T16:48:42;7.60;1.00
1277;DHT22;631;51.024;13.826;2024-03-23T16:51:09;7.50;99.90
1277;DHT22;631;51.024;13.826;2024-03-23T16:53:35;7.40;1.00
1277;DHT22;631;51.024;13.826;2024-03-23T16:56:08;7.40;1.00
1277;DHT22;631;51.024;13.826;2024-03-23T16:58:37;7.40;1.00
1277;DHT22;631;51.024;13.826;2024-03-23T17:03:35;7.30;99.90
1277;DHT22;631;51.024;13.826;2024-03-23T17:06:07;7.30;99.90
1277;DHT22;631;51.024;13.826;2024-03-23T17:08:34;7.20;17.90
1277;DHT22;631;51.024;13.826;2024-03-23T17:11:00;7.20;99.90
1277;DHT22;631;51.024;13.826;2024-03-23T17:13:27;7.20;99.90
1277;DHT22;631;51.024;13.826;2024-03-23T17:15:52;7.20;3.80
1277;DHT22;631;51.024;13.826;2024-03-23T17:18:18;7.20;45.40
1277;DHT22;631;51.024;13.826;2024-03-23T17:20:44;7.20;1.00
1277;DHT22;631;51.024;13.826;2024-03-23T17:23:10;7.20;18.50